createdAt,value
2022-12-08T00:01:21.408Z,4.30
2022-12-08T00:03:48.411Z,4.20
2022-12-08T00:06:52.380Z,4.20
2022-12-08T00:09:38.961Z,4.20
2022-12-08T00:12:13.531Z,4.20
2022-12-08T00:14:42.949Z,4.20
2022-12-08T00:17:11.483Z,4.20
2022-12-08T00:19:39.289Z,4.10
2022-12-08T00:22:07.850Z,4.10
2022-12-08T00:24:40.333Z,4.10
2022-12-08T00:27:09.516Z,4.10
2022-12-08T00:29:36.884Z,4.10
2022-12-08T00:32:04.638Z,4.10
2022-12-08T00:34:32.600Z,4.10
2022-12-08T00:36:59.440Z,4.10
2022-12-08T00:39:26.343Z,4.10
2022-12-08T00:42:28.355Z,4.10
2022-12-08T00:44:55.158Z,4.10
2022-12-08T00:47:24.818Z,4.10
2022-12-08T00:49:52.082Z,4.10
2022-12-08T00:52:18.941Z,4.20
2022-12-08T00:54:46.504Z,4.20
2022-12-08T00:57:13.308Z,4.10
2022-12-08T00:59:40.200Z,4.20
2022-12-08T01:02:06.916Z,4.20
2022-12-08T01:04:33.716Z,4.20
2022-12-08T01:07:00.510Z,4.20
2022-12-08T01:09:27.228Z,4.20
2022-12-08T01:11:53.986Z,4.20
2022-12-08T01:14:21.112Z,4.20
2022-12-08T01:16:47.976Z,4.20
2022-12-08T01:19:16.722Z,4.20
2022-12-08T01:21:45.193Z,4.20
2022-12-08T01:24:14.269Z,4.20
2022-12-08T01:26:41.392Z,4.20
2022-12-08T01:29:08.282Z,4.20
2022-12-08T01:31:35.221Z,4.10
2022-12-08T01:34:01.953Z,4.10
2022-12-08T01:36:31.522Z,4.10
2022-12-08T01:39:00.608Z,4.10
2022-12-08T01:41:32.832Z,4.10
2022-12-08T01:44:08.812Z,4.10
2022-12-08T01:46:38.006Z,4.00
2022-12-08T01:49:18.208Z,4.10
2022-12-08T01:51:47.964Z,4.10
2022-12-08T01:54:15.596Z,4.10
2022-12-08T01:56:50.448Z,4.10
2022-12-08T01:59:19.076Z,4.10
2022-12-08T02:01:51.468Z,4.10
2022-12-08T02:04:18.241Z,4.10
2022-12-08T02:06:46.631Z,4.10
2022-12-08T02:09:14.545Z,4.10
2022-12-08T02:11:41.273Z,4.10
2022-12-08T02:14:10.756Z,4.10
2022-12-08T02:17:05.447Z,4.10
2022-12-08T02:20:04.145Z,4.10
2022-12-08T02:22:44.145Z,4.10
2022-12-08T02:25:32.362Z,4.10
2022-12-08T02:28:36.754Z,4.10
2022-12-08T02:31:22.056Z,4.10
2022-12-08T02:34:07.102Z,4.10
2022-12-08T02:36:58.538Z,4.20
2022-12-08T02:39:28.441Z,4.20
2022-12-08T02:42:19.986Z,4.10
2022-12-08T02:44:57.418Z,4.20
2022-12-08T02:47:26.629Z,4.20
2022-12-08T02:49:55.256Z,4.20
2022-12-08T02:52:21.918Z,4.20
2022-12-08T02:54:58.145Z,4.20
2022-12-08T02:57:30.964Z,4.20
2022-12-08T03:00:13.907Z,4.20
2022-12-08T03:02:50.960Z,4.20
2022-12-08T03:05:23.679Z,4.20
2022-12-08T03:07:56.214Z,4.20
2022-12-08T03:10:31.287Z,4.20
2022-12-08T03:13:05.547Z,4.20
2022-12-08T03:15:32.815Z,4.20
2022-12-08T03:18:00.765Z,4.30
2022-12-08T03:20:30.029Z,4.20
2022-12-08T03:23:00.112Z,4.20
2022-12-08T03:25:31.289Z,4.30
2022-12-08T03:27:59.511Z,4.30
2022-12-08T03:30:29.389Z,4.20
2022-12-08T03:33:14.715Z,4.30
2022-12-08T03:35:42.634Z,4.30
2022-12-08T03:38:13.020Z,4.30
2022-12-08T03:40:40.356Z,4.30
2022-12-08T03:43:07.715Z,4.30
2022-12-08T03:45:34.594Z,4.30
2022-12-08T03:48:01.871Z,4.30
2022-12-08T03:50:28.749Z,4.30
2022-12-08T03:52:55.473Z,4.40
2022-12-08T03:55:22.204Z,4.40
2022-12-08T03:57:48.925Z,4.30
2022-12-08T04:00:16.910Z,4.40
2022-12-08T04:02:43.732Z,4.40
2022-12-08T04:05:10.553Z,4.40
2022-12-08T04:07:37.380Z,4.40
2022-12-08T04:10:05.613Z,4.40
2022-12-08T04:12:32.641Z,4.40
2022-12-08T04:14:59.392Z,4.40
2022-12-08T04:17:26.127Z,4.40
2022-12-08T04:19:52.885Z,4.40
2022-12-08T04:22:19.646Z,4.40
2022-12-08T04:24:46.364Z,4.40
2022-12-08T04:27:13.110Z,4.40
2022-12-08T04:29:39.833Z,4.40
2022-12-08T04:32:06.577Z,4.40
2022-12-08T04:34:33.674Z,4.40
2022-12-08T04:37:00.395Z,4.40
2022-12-08T04:39:27.161Z,4.40
2022-12-08T04:41:53.967Z,4.40
2022-12-08T04:44:20.716Z,4.40
2022-12-08T04:46:47.561Z,4.40
2022-12-08T04:49:14.315Z,4.40
2022-12-08T04:51:41.048Z,4.40
2022-12-08T04:54:07.780Z,4.40
2022-12-08T04:56:34.539Z,4.40
2022-12-08T04:59:01.311Z,4.40
2022-12-08T05:01:28.099Z,4.40
2022-12-08T05:03:54.876Z,4.40
2022-12-08T05:06:21.663Z,4.40
2022-12-08T05:08:48.466Z,4.40
2022-12-08T05:11:15.222Z,4.40
2022-12-08T05:13:42.044Z,4.40
2022-12-08T05:16:11.903Z,4.40
2022-12-08T05:18:39.947Z,4.40
2022-12-08T05:21:07.532Z,4.40
2022-12-08T05:23:34.639Z,4.40
2022-12-08T05:26:01.598Z,4.40
2022-12-08T05:28:44.319Z,4.50
2022-12-08T05:31:16.033Z,4.50
2022-12-08T05:33:44.545Z,4.40
2022-12-08T05:36:14.134Z,4.40
2022-12-08T05:38:41.252Z,4.40
2022-12-08T05:41:09.291Z,4.40
2022-12-08T05:43:36.333Z,4.40
2022-12-08T05:46:03.199Z,4.40
2022-12-08T05:48:30.316Z,4.40
2022-12-08T05:50:57.183Z,4.40
2022-12-08T05:53:23.912Z,4.40
2022-12-08T05:55:50.658Z,4.40
2022-12-08T05:58:20.125Z,4.40
2022-12-08T06:00:47.953Z,4.40
2022-12-08T06:03:17.826Z,4.40
2022-12-08T06:05:46.552Z,4.40
2022-12-08T06:08:13.609Z,4.40
2022-12-08T06:10:42.597Z,4.40
2022-12-08T06:13:09.909Z,4.40
2022-12-08T06:15:37.730Z,4.40
2022-12-08T06:18:06.471Z,4.40
2022-12-08T06:20:35.571Z,4.40
2022-12-08T06:23:03.880Z,4.40
2022-12-08T06:25:31.208Z,4.40
2022-12-08T06:27:58.632Z,4.40
2022-12-08T06:30:26.225Z,4.40
2022-12-08T06:32:53.449Z,4.40
2022-12-08T06:35:20.646Z,4.40
2022-12-08T06:37:51.525Z,4.40
2022-12-08T06:40:18.697Z,4.40
2022-12-08T06:42:46.824Z,4.40
2022-12-08T06:45:15.472Z,4.30
2022-12-08T06:47:42.487Z,4.40
2022-12-08T06:50:10.984Z,4.40
2022-12-08T06:52:47.262Z,4.30
2022-12-08T06:55:42.728Z,4.30
2022-12-08T06:58:06.876Z,4.30
2022-12-08T07:00:33.671Z,4.30
2022-12-08T07:03:00.828Z,4.30
2022-12-08T07:05:27.737Z,4.30
2022-12-08T07:07:56.405Z,4.40
2022-12-08T07:10:24.980Z,4.40
2022-12-08T07:12:54.216Z,4.40
2022-12-08T07:15:21.809Z,4.30
2022-12-08T07:17:53.580Z,4.30
2022-12-08T07:20:27.376Z,4.30
2022-12-08T07:22:54.381Z,4.30
2022-12-08T07:25:22.152Z,4.30
2022-12-08T07:27:51.520Z,4.30
2022-12-08T07:30:19.371Z,4.30
2022-12-08T07:32:46.621Z,4.30
2022-12-08T07:35:13.940Z,4.30
2022-12-08T07:37:41.132Z,4.30
2022-12-08T07:40:10.660Z,4.30
2022-12-08T07:42:38.613Z,4.20
2022-12-08T07:45:06.418Z,4.30
2022-12-08T07:47:33.382Z,4.20
2022-12-08T07:50:01.912Z,4.20
2022-12-08T07:52:29.872Z,4.20
2022-12-08T07:54:57.267Z,4.20
2022-12-08T07:57:24.440Z,4.20
2022-12-08T07:59:51.724Z,4.10
2022-12-08T08:02:25.340Z,4.10
2022-12-08T08:04:53.557Z,4.10
2022-12-08T08:07:21.689Z,4.10
2022-12-08T08:09:48.555Z,4.10
2022-12-08T08:12:32.369Z,4.00
2022-12-08T08:15:01.172Z,4.00
2022-12-08T08:17:29.536Z,4.00
2022-12-08T08:19:57.424Z,4.00
2022-12-08T08:22:25.655Z,4.00
2022-12-08T08:24:54.637Z,4.00
2022-12-08T08:27:21.692Z,4.10
2022-12-08T08:29:49.212Z,4.00
2022-12-08T08:32:16.128Z,4.00
2022-12-08T08:34:43.650Z,4.10
2022-12-08T08:37:15.564Z,4.10
2022-12-08T08:39:43.093Z,4.10
2022-12-08T08:42:09.918Z,4.10
2022-12-08T08:44:39.231Z,4.10
2022-12-08T08:47:06.857Z,4.10
2022-12-08T08:49:38.364Z,4.10
2022-12-08T08:52:06.296Z,4.10
2022-12-08T08:54:33.788Z,4.10
2022-12-08T08:57:01.734Z,4.00
2022-12-08T08:59:33.752Z,4.00
2022-12-08T09:02:02.900Z,4.00
2022-12-08T09:04:32.273Z,4.00
2022-12-08T09:07:02.961Z,4.00
2022-12-08T09:09:31.841Z,4.10
2022-12-08T09:11:59.926Z,4.00
2022-12-08T09:14:27.863Z,4.00
2022-12-08T09:16:54.592Z,4.00
2022-12-08T09:19:22.374Z,4.00
2022-12-08T09:21:49.537Z,4.00
2022-12-08T09:24:17.640Z,4.00
2022-12-08T09:26:47.900Z,4.00
2022-12-08T09:29:17.816Z,4.00
2022-12-08T09:31:45.126Z,4.00
2022-12-08T09:34:13.422Z,4.00
2022-12-08T09:36:40.626Z,4.00
2022-12-08T09:39:08.584Z,4.10
2022-12-08T09:41:44.787Z,4.10
2022-12-08T09:44:52.419Z,4.10
2022-12-08T09:47:29.383Z,4.10
2022-12-08T09:50:23.581Z,4.10
2022-12-08T09:53:03.648Z,4.20
2022-12-08T09:55:53.771Z,4.20
2022-12-08T09:58:42.174Z,4.20
2022-12-08T10:01:11.109Z,4.20
2022-12-08T10:03:40.723Z,4.10
2022-12-08T10:06:13.603Z,4.10
2022-12-08T10:08:47.077Z,4.20
2022-12-08T10:11:20.244Z,4.20
2022-12-08T10:14:07.741Z,4.20
2022-12-08T10:16:40.721Z,4.20
2022-12-08T10:19:18.815Z,4.20
2022-12-08T10:21:45.958Z,4.20
2022-12-08T10:24:22.218Z,4.20
2022-12-08T10:26:49.579Z,4.20
2022-12-08T10:29:16.592Z,4.20
2022-12-08T10:31:43.727Z,4.10
2022-12-08T10:34:24.284Z,4.10
2022-12-08T10:36:57.643Z,4.10
2022-12-08T10:39:34.480Z,4.10
2022-12-08T10:42:22.033Z,4.10
2022-12-08T10:44:51.538Z,4.10
2022-12-08T10:47:21.721Z,4.10
2022-12-08T10:50:06.529Z,4.10
2022-12-08T10:52:38.445Z,4.10
2022-12-08T10:55:14.944Z,4.10
2022-12-08T10:57:42.089Z,4.10
2022-12-08T11:00:14.838Z,4.10
2022-12-08T11:03:00.782Z,4.20
2022-12-08T11:05:32.185Z,4.20
2022-12-08T11:08:01.211Z,4.20
2022-12-08T11:10:35.428Z,4.20
2022-12-08T11:13:05.743Z,4.20
2022-12-08T11:15:37.333Z,4.20
2022-12-08T11:18:19.694Z,4.20
2022-12-08T11:20:46.424Z,4.20
2022-12-08T11:23:21.983Z,4.30
2022-12-08T11:25:49.973Z,4.30
2022-12-08T11:28:23.148Z,4.30
2022-12-08T11:30:57.520Z,4.30
2022-12-08T11:33:26.655Z,4.30
2022-12-08T11:36:04.602Z,4.30
2022-12-08T11:38:32.946Z,4.30
2022-12-08T11:41:20.549Z,4.30
2022-12-08T11:44:04.870Z,4.30
2022-12-08T11:46:43.408Z,4.30
2022-12-08T11:49:13.100Z,4.30
2022-12-08T11:51:47.425Z,4.20
2022-12-08T11:54:20.402Z,4.20
2022-12-08T11:56:51.220Z,4.20
2022-12-08T11:59:41.811Z,4.20
2022-12-08T12:02:42.705Z,4.20
2022-12-08T12:06:05.508Z,4.10
2022-12-08T12:08:42.086Z,4.10
2022-12-08T12:11:35.475Z,4.00
2022-12-08T12:14:17.475Z,4.00
2022-12-08T12:16:59.481Z,4.00
2022-12-08T12:19:30.188Z,4.00
2022-12-08T12:21:58.150Z,4.00
2022-12-08T12:24:29.457Z,4.00
2022-12-08T12:27:05.017Z,4.00
2022-12-08T12:29:35.653Z,4.00
2022-12-08T12:32:12.634Z,4.10
2022-12-08T12:34:51.034Z,4.10
2022-12-08T12:37:27.925Z,4.10
2022-12-08T12:40:04.303Z,4.10
2022-12-08T12:42:40.356Z,4.10
2022-12-08T12:45:27.487Z,4.10
2022-12-08T12:47:57.329Z,4.00
2022-12-08T12:50:33.370Z,4.10
2022-12-08T12:53:05.952Z,4.10
2022-12-08T12:55:45.264Z,4.00
2022-12-08T12:58:27.296Z,4.00
2022-12-08T13:01:12.617Z,4.00
2022-12-08T13:03:47.229Z,4.00
2022-12-08T13:06:21.163Z,4.00
2022-12-08T13:08:53.462Z,4.00
2022-12-08T13:11:21.546Z,4.00
2022-12-08T13:14:03.574Z,3.90
2022-12-08T13:16:37.320Z,3.90
2022-12-08T13:19:05.659Z,4.00
2022-12-08T13:21:37.704Z,4.00
2022-12-08T13:24:10.663Z,4.00
2022-12-08T13:26:49.142Z,4.00
2022-12-08T13:29:26.367Z,4.00
2022-12-08T13:31:55.042Z,4.00
2022-12-08T13:34:25.829Z,4.00
2022-12-08T13:36:58.541Z,4.00
2022-12-08T13:39:32.248Z,4.10
2022-12-08T13:42:05.605Z,4.10
2022-12-08T13:45:21.377Z,4.10
2022-12-08T13:57:08.596Z,4.00
2022-12-08T13:59:44.080Z,4.10
2022-12-08T14:02:21.984Z,4.10
2022-12-08T14:07:37.765Z,4.10
2022-12-08T14:10:09.539Z,4.10
2022-12-08T14:12:37.235Z,4.20
2022-12-08T14:15:06.545Z,4.10
2022-12-08T14:17:34.090Z,4.10
2022-12-08T14:20:02.373Z,4.10
2022-12-08T14:22:34.597Z,4.10
2022-12-08T14:25:02.434Z,4.10
2022-12-08T14:27:36.115Z,4.20
2022-12-08T14:30:09.433Z,4.20
2022-12-08T14:32:49.243Z,4.20
2022-12-08T14:35:19.448Z,4.20
2022-12-08T14:37:52.796Z,4.10
2022-12-08T14:40:22.997Z,4.10
2022-12-08T14:42:53.646Z,4.10
2022-12-08T14:45:21.309Z,4.10
2022-12-08T14:47:48.613Z,4.10
2022-12-08T14:50:40.584Z,4.10
2022-12-08T14:53:26.037Z,4.10
2022-12-08T14:55:52.837Z,4.10
2022-12-08T14:58:28.545Z,4.00
2022-12-08T15:00:58.472Z,4.00
2022-12-08T15:03:31.073Z,4.00
2022-12-08T15:06:00.534Z,4.00
2022-12-08T15:08:27.662Z,4.00
2022-12-08T15:11:21.631Z,4.00
2022-12-08T15:13:51.518Z,3.90
2022-12-08T15:16:31.828Z,3.90
2022-12-08T15:19:17.838Z,3.90
2022-12-08T15:21:45.922Z,3.90
2022-12-08T15:24:14.421Z,4.00
2022-12-08T15:26:49.345Z,4.00
2022-12-08T15:29:24.963Z,4.00
2022-12-08T15:31:53.713Z,4.00
2022-12-08T15:34:21.043Z,4.00
2022-12-08T15:36:50.385Z,4.00
2022-12-08T15:39:32.890Z,4.00
2022-12-08T15:42:00.513Z,4.00
2022-12-08T15:44:29.095Z,4.00
2022-12-08T15:47:01.362Z,4.00
2022-12-08T15:49:28.446Z,4.00
2022-12-08T15:52:04.991Z,4.00
2022-12-08T15:54:37.809Z,4.00
2022-12-08T15:57:25.067Z,4.00
2022-12-08T15:59:52.599Z,4.10
2022-12-08T16:02:22.742Z,4.10
2022-12-08T16:07:38.268Z,4.10
2022-12-08T16:10:07.259Z,4.10
2022-12-08T16:16:00.815Z,4.10
2022-12-08T16:18:32.603Z,4.10
2022-12-08T16:23:46.520Z,4.10
2022-12-08T16:26:54.624Z,4.10
2022-12-08T16:29:07.114Z,4.10
2022-12-08T16:31:34.836Z,4.10
2022-12-08T16:34:01.797Z,4.10
2022-12-08T16:36:28.646Z,4.10
2022-12-08T16:38:55.528Z,4.10
2022-12-08T16:41:41.188Z,4.10
2022-12-08T16:44:08.179Z,4.00
2022-12-08T16:46:35.955Z,4.00
2022-12-08T16:49:04.102Z,4.00
2022-12-08T16:51:35.115Z,4.00
2022-12-08T16:54:02.362Z,4.00
2022-12-08T16:56:33.172Z,4.00
2022-12-08T16:59:01.658Z,4.00
2022-12-08T17:01:28.691Z,4.00
2022-12-08T17:04:29.084Z,4.00
2022-12-08T17:06:42.898Z,4.00
2022-12-08T17:09:09.922Z,4.00
2022-12-08T17:11:42.614Z,4.00
2022-12-08T17:14:12.515Z,4.00
2022-12-08T17:16:40.003Z,4.00
2022-12-08T17:19:07.338Z,4.00
2022-12-08T17:21:34.323Z,4.00
2022-12-08T17:24:01.427Z,4.00
2022-12-08T17:26:30.835Z,4.00
2022-12-08T17:29:00.984Z,4.00
2022-12-08T17:31:31.066Z,4.00
2022-12-08T17:34:03.682Z,4.00
2022-12-08T17:36:30.656Z,4.00
2022-12-08T17:39:00.325Z,4.00
2022-12-08T17:41:28.097Z,4.00
2022-12-08T17:43:59.053Z,4.00
2022-12-08T17:46:26.029Z,4.00
2022-12-08T17:48:53.812Z,4.00
2022-12-08T17:51:20.877Z,4.00
2022-12-08T17:53:47.855Z,4.00
2022-12-08T17:56:17.977Z,4.00
2022-12-08T17:58:47.537Z,4.00
2022-12-08T18:01:18.140Z,4.00
2022-12-08T18:03:45.275Z,4.00
2022-12-08T18:06:12.871Z,4.10
2022-12-08T18:08:40.312Z,4.00
2022-12-08T18:11:13.975Z,4.00
2022-12-08T18:13:41.047Z,4.10
2022-12-08T18:16:08.353Z,4.00
2022-12-08T18:18:35.660Z,4.10
2022-12-08T18:21:02.643Z,4.00
2022-12-08T18:23:29.707Z,4.00
2022-12-08T18:25:56.602Z,4.00
2022-12-08T18:28:24.223Z,4.00
2022-12-08T18:30:51.312Z,4.00
2022-12-08T18:42:27.714Z,4.00
2022-12-08T18:44:58.804Z,4.00
2022-12-08T18:47:25.752Z,4.00
2022-12-08T18:49:52.668Z,4.00
2022-12-08T18:52:26.867Z,4.00
2022-12-08T18:55:06.444Z,3.90
2022-12-08T18:57:36.780Z,3.90
2022-12-08T19:00:05.833Z,3.90
2022-12-08T19:02:33.953Z,3.90
2022-12-08T19:05:01.271Z,3.80
2022-12-08T19:11:49.162Z,3.80
2022-12-08T19:14:16.123Z,3.80
2022-12-08T19:16:42.998Z,3.70
2022-12-08T19:19:09.983Z,3.70
2022-12-08T19:21:42.892Z,3.70
2022-12-08T19:24:12.976Z,3.70
2022-12-08T19:26:39.724Z,3.70
2022-12-08T19:29:06.596Z,3.70
2022-12-08T19:31:33.839Z,3.70
2022-12-08T19:34:00.664Z,3.70
2022-12-08T19:36:27.725Z,3.60
2022-12-08T19:39:13.045Z,3.60
2022-12-08T19:41:58.992Z,3.60
2022-12-08T19:44:34.203Z,3.50
2022-12-08T19:47:01.961Z,3.50
2022-12-08T19:49:29.022Z,3.50
2022-12-08T19:51:56.255Z,3.40
2022-12-08T19:54:23.430Z,3.40
2022-12-08T19:56:50.246Z,3.40
2022-12-08T19:59:18.033Z,3.30
2022-12-08T20:01:45.501Z,3.40
2022-12-08T20:04:14.932Z,3.30
2022-12-08T20:06:42.115Z,3.30
2022-12-08T20:09:10.357Z,3.30
2022-12-08T20:11:37.913Z,3.30
2022-12-08T20:14:04.825Z,3.20
2022-12-08T20:16:32.022Z,3.30
2022-12-08T20:18:59.058Z,3.20
2022-12-08T20:21:25.920Z,3.20
2022-12-08T20:23:52.738Z,3.20
2022-12-08T20:26:22.710Z,3.20
2022-12-08T20:28:50.345Z,3.20
2022-12-08T20:31:25.836Z,3.20
2022-12-08T20:33:53.006Z,3.20
2022-12-08T20:36:21.206Z,3.20
2022-12-08T20:38:49.969Z,3.30
2022-12-08T20:41:17.675Z,3.30
2022-12-08T20:43:46.312Z,3.30
2022-12-08T20:46:15.396Z,3.30
2022-12-08T20:48:43.225Z,3.30
2022-12-08T20:51:18.419Z,3.30
2022-12-08T20:53:46.099Z,3.30
2022-12-08T20:56:21.668Z,3.30
2022-12-08T20:58:49.513Z,3.40
2022-12-08T21:01:19.142Z,3.40
2022-12-08T21:03:47.505Z,3.40
2022-12-08T21:06:14.988Z,3.40
2022-12-08T21:08:42.482Z,3.40
2022-12-08T21:11:10.096Z,3.40
2022-12-08T21:13:37.947Z,3.40
2022-12-08T21:16:05.993Z,3.50
2022-12-08T21:18:38.884Z,3.50
2022-12-08T21:21:09.157Z,3.50
2022-12-08T21:23:36.054Z,3.50
2022-12-08T21:26:09.634Z,3.50
2022-12-08T21:28:36.472Z,3.50
2022-12-08T21:31:07.757Z,3.60
2022-12-08T21:33:35.104Z,3.50
2022-12-08T21:36:09.797Z,3.60
2022-12-08T21:38:38.518Z,3.50
2022-12-08T21:41:07.989Z,3.50
2022-12-08T21:43:35.519Z,3.50
2022-12-08T21:46:02.712Z,3.50
2022-12-08T21:48:29.613Z,3.50
2022-12-08T21:50:57.147Z,3.60
2022-12-08T21:53:26.515Z,3.50
2022-12-08T21:55:53.350Z,3.60
2022-12-08T21:58:20.154Z,3.60
2022-12-08T22:00:47.183Z,3.60
2022-12-08T22:03:15.509Z,3.60
2022-12-08T22:05:42.790Z,3.60
2022-12-08T22:08:09.804Z,3.60
2022-12-08T22:10:36.675Z,3.60
2022-12-08T22:13:03.991Z,3.60
2022-12-08T22:15:32.703Z,3.60
2022-12-08T22:17:59.761Z,3.60
2022-12-08T22:20:26.737Z,3.60
2022-12-08T22:22:53.821Z,3.60
2022-12-08T22:25:20.778Z,3.70
2022-12-08T22:27:47.860Z,3.70
2022-12-08T22:30:14.969Z,3.70
2022-12-08T22:32:42.438Z,3.70
2022-12-08T22:35:10.064Z,3.70
2022-12-08T22:37:36.995Z,3.70
2022-12-08T22:40:05.336Z,3.70
2022-12-08T22:42:32.921Z,3.70
2022-12-08T22:44:59.976Z,3.70
2022-12-08T22:47:26.854Z,3.70
2022-12-08T22:49:53.975Z,3.70
2022-12-08T22:52:20.902Z,3.70
2022-12-08T22:54:47.830Z,3.70
2022-12-08T22:57:14.616Z,3.70
2022-12-08T22:59:41.457Z,3.70
2022-12-08T23:02:08.279Z,3.70
2022-12-08T23:04:35.853Z,3.70
2022-12-08T23:07:03.087Z,3.70
2022-12-08T23:09:29.892Z,3.70
2022-12-08T23:11:56.873Z,3.70
2022-12-08T23:14:26.476Z,3.70
2022-12-08T23:16:53.411Z,3.70
2022-12-08T23:19:20.493Z,3.70
2022-12-08T23:21:47.502Z,3.70
2022-12-08T23:24:14.272Z,3.70
2022-12-08T23:26:42.927Z,3.70
2022-12-08T23:29:10.011Z,3.70
2022-12-08T23:31:38.091Z,3.60
2022-12-08T23:34:05.074Z,3.70
2022-12-08T23:36:32.033Z,3.70
2022-12-08T23:38:58.789Z,3.70
2022-12-08T23:41:25.525Z,3.70
2022-12-08T23:43:52.440Z,3.70
2022-12-08T23:46:20.977Z,3.70
2022-12-08T23:48:49.712Z,3.70
2022-12-08T23:51:19.541Z,3.70
2022-12-08T23:53:46.897Z,3.70
2022-12-08T23:56:17.368Z,3.70
2022-12-08T23:58:45.976Z,3.70
